createdAt,value
2017-11-13T13:50:32.003Z,1
2017-11-13T13:51:34.688Z,1.2
2017-11-13T13:52:39.464Z,1.4
2017-11-13T13:53:42.226Z,1.4
2017-11-13T13:54:46.033Z,1.6
2017-11-13T13:55:49.980Z,1.5
2017-11-13T13:56:53.660Z,1.5
2017-11-13T13:57:56.780Z,1.6
2017-11-13T13:58:59.284Z,1.6
2017-11-13T14:00:02.080Z,1.6
2017-11-13T14:01:05.315Z,1.5
2017-11-13T14:02:08.141Z,1.4
2017-11-13T14:03:10.768Z,1.6
2017-11-13T14:04:14.444Z,1.4
2017-11-13T14:05:19.418Z,1.5
2017-11-13T14:06:22.490Z,1.7
2017-11-13T14:07:26.282Z,1.4
2017-11-13T14:08:29.181Z,1.4
2017-11-13T14:09:32.093Z,1.6
2017-11-13T14:10:35.642Z,1.4
2017-11-13T14:11:38.142Z,1.4
2017-11-13T14:12:40.699Z,1.5
2017-11-13T14:13:43.347Z,1.4
2017-11-13T14:14:46.388Z,1.6
2017-11-13T14:15:48.833Z,1.4
2017-11-13T14:16:51.274Z,1.5
2017-11-13T14:17:53.729Z,1.4
2017-11-13T14:18:56.172Z,1.5
2017-11-13T14:19:58.627Z,1.4
2017-11-13T14:21:01.084Z,1.5
2017-11-13T14:22:03.535Z,1.5
2017-11-13T14:23:06.000Z,1.5
2017-11-13T14:24:08.435Z,1.5
2017-11-13T14:25:10.866Z,1.3
2017-11-13T14:26:13.349Z,1.4
2017-11-13T14:27:15.773Z,1.5
2017-11-13T14:28:18.215Z,1.4
2017-11-13T14:29:20.643Z,1.4
2017-11-13T14:30:23.072Z,1.4
2017-11-13T14:31:25.531Z,1.4
2017-11-13T14:32:28.341Z,1.5
2017-11-13T14:33:31.133Z,1.5
2017-11-13T14:34:33.571Z,1.4
2017-11-13T14:35:36.002Z,1.3
2017-11-13T14:36:38.435Z,1.3
2017-11-13T14:37:40.871Z,1.4
2017-11-13T14:38:43.315Z,1.3
2017-11-13T14:39:45.746Z,1.3
2017-11-13T14:40:48.179Z,1.3
2017-11-13T14:41:50.612Z,1.4
2017-11-13T14:42:53.063Z,1.3
2017-11-13T14:43:55.507Z,1.3
2017-11-13T14:44:57.965Z,1.4
2017-11-13T14:46:00.394Z,1.3
2017-11-13T14:47:02.832Z,1.4
2017-11-13T14:48:05.253Z,1.3
2017-11-13T14:49:07.677Z,1.4
2017-11-13T14:50:10.109Z,1.3
2017-11-13T14:51:12.541Z,1.4
2017-11-13T14:52:14.964Z,1.3
2017-11-13T14:53:17.409Z,1.3
2017-11-13T14:54:19.843Z,1.2
2017-11-13T14:55:22.278Z,1.2
2017-11-13T14:56:24.706Z,1.3
2017-11-13T14:57:27.130Z,1.3
2017-11-13T14:58:29.552Z,1.2
2017-11-13T14:59:31.994Z,1.2
2017-11-13T15:00:34.416Z,1.2
2017-11-13T15:01:36.853Z,1.2
2017-11-13T15:02:39.640Z,1.2
2017-11-13T15:03:42.076Z,1.3
2017-11-13T15:04:44.505Z,1.3
2017-11-13T15:05:46.934Z,1.2
2017-11-13T15:06:49.367Z,1.2
2017-11-13T15:07:51.796Z,1.3
2017-11-13T15:08:54.228Z,1.2
2017-11-13T15:09:56.662Z,1.3
2017-11-13T15:10:59.073Z,1.2
2017-11-13T15:12:01.511Z,1.2
2017-11-13T15:13:03.934Z,1.2
2017-11-13T15:14:06.361Z,1.3
2017-11-13T15:15:08.785Z,1.3
2017-11-13T15:16:11.221Z,1.2
2017-11-13T15:17:13.645Z,1.2
2017-11-13T15:18:16.083Z,1.2
2017-11-13T15:19:18.521Z,1.3
2017-11-13T15:20:20.947Z,1.5
2017-11-13T15:21:23.737Z,1.5
2017-11-13T15:22:26.177Z,1.3
2017-11-13T15:23:28.597Z,1.3
2017-11-13T15:24:31.075Z,1.3
2017-11-13T15:25:33.487Z,1.3
2017-11-13T15:26:35.925Z,1.4
2017-11-13T15:27:38.712Z,1.2
2017-11-13T15:28:41.139Z,1.2
2017-11-13T15:29:43.564Z,1.2
2017-11-13T15:30:45.991Z,1.2
2017-11-13T15:31:48.424Z,1.2
2017-11-13T15:32:50.849Z,1.2
2017-11-13T15:33:53.310Z,1.3
2017-11-13T15:34:55.726Z,1.2
2017-11-13T15:35:58.520Z,1.1
2017-11-13T15:37:00.952Z,1.2
2017-11-13T15:38:03.382Z,1.2
2017-11-13T15:39:05.808Z,1.3
2017-11-13T15:40:08.290Z,1.2
2017-11-13T15:41:10.711Z,1.2
2017-11-13T15:42:13.141Z,1.1
2017-11-13T15:43:15.578Z,1.1
2017-11-13T15:44:17.997Z,1.1
2017-11-13T15:45:20.438Z,1.1
2017-11-13T15:46:22.887Z,1.1
2017-11-13T15:47:25.331Z,1.2
2017-11-13T15:48:27.756Z,1.2
2017-11-13T15:49:30.194Z,1.2
2017-11-13T15:50:32.622Z,1.2
2017-11-13T15:51:35.042Z,1.1
2017-11-13T15:52:37.474Z,1.2
2017-11-13T15:53:39.916Z,1.2
2017-11-13T15:54:42.346Z,1.1
2017-11-13T15:55:44.795Z,1.1
2017-11-13T15:56:47.222Z,1.1
2017-11-13T15:57:49.648Z,1.2
2017-11-13T15:58:52.083Z,1.1
2017-11-13T15:59:54.531Z,1.1
2017-11-13T16:00:56.956Z,1.1
2017-11-13T16:01:59.379Z,1.2
2017-11-13T16:03:01.838Z,1.1
2017-11-13T16:04:04.390Z,1.1
2017-11-13T16:05:09.570Z,1.1
2017-11-13T16:06:15.750Z,1.1
2017-11-13T16:07:19.604Z,1.1
2017-11-13T16:08:30.891Z,1.1
2017-11-13T16:09:37.456Z,1.1
2017-11-13T16:10:40.900Z,1.1
2017-11-13T16:11:43.422Z,1.1
2017-11-13T16:12:49.663Z,1.1
2017-11-13T16:13:56.745Z,1.1
2017-11-13T16:15:04.226Z,1.1
2017-11-13T16:16:09.013Z,1.1
2017-11-13T16:17:16.704Z,1.1
2017-11-13T16:18:23.510Z,1.1
2017-11-13T16:19:31.539Z,1.2
2017-11-13T16:20:39.639Z,1.1
2017-11-13T16:21:44.526Z,1.1
2017-11-13T16:22:53.920Z,1.1
2017-11-13T16:24:02.323Z,1.1
2017-11-13T16:25:04.768Z,1.1
2017-11-13T16:26:07.192Z,1.1
2017-11-13T16:27:09.617Z,1.1
2017-11-13T16:28:12.401Z,1.1
2017-11-13T16:29:15.206Z,1.1
2017-11-13T16:30:17.644Z,1.1
2017-11-13T16:31:20.072Z,1.1
2017-11-13T16:32:22.500Z,1.1
2017-11-13T16:33:24.920Z,1.1
2017-11-13T16:34:27.383Z,1.1
2017-11-13T16:35:29.891Z,1.1
2017-11-13T16:36:32.315Z,1.1
2017-11-13T16:37:34.748Z,1.1
2017-11-13T16:38:37.177Z,1.1
2017-11-13T16:39:39.684Z,1.1
2017-11-13T16:40:42.131Z,1.1
2017-11-13T16:41:44.568Z,1.1
2017-11-13T16:42:46.998Z,1.1
2017-11-13T16:43:49.541Z,1.2
2017-11-13T16:44:51.974Z,1.1
2017-11-13T16:45:54.415Z,1.2
2017-11-13T16:46:56.839Z,1.1
2017-11-13T16:47:59.621Z,1.1
2017-11-13T16:49:02.049Z,1.1
2017-11-13T16:50:04.468Z,1.1
2017-11-13T16:51:06.903Z,1.1
2017-11-13T16:52:09.316Z,1.1
2017-11-13T16:53:11.747Z,1.1
2017-11-13T16:54:14.208Z,1.1
2017-11-13T16:55:16.642Z,1.1
2017-11-13T16:56:19.097Z,1.1
2017-11-13T16:57:21.527Z,1.1
2017-11-13T16:58:23.947Z,1.1
2017-11-13T16:59:26.380Z,1.1
2017-11-13T17:00:28.798Z,1.1
2017-11-13T17:01:31.217Z,1.2
2017-11-13T17:02:34.005Z,1.2
2017-11-13T17:03:36.430Z,1.1
2017-11-13T17:04:39.227Z,1.1
2017-11-13T17:05:41.666Z,1.1
2017-11-13T17:06:44.089Z,1.1
2017-11-13T17:07:46.524Z,1.2
2017-11-13T17:08:48.951Z,1.1
2017-11-13T17:09:51.379Z,1.1
2017-11-13T17:10:53.808Z,1.1
2017-11-13T17:11:56.234Z,1.1
2017-11-13T17:12:58.662Z,1.2
2017-11-13T17:14:01.092Z,1.1
2017-11-13T17:15:03.518Z,1.2
2017-11-13T17:16:05.935Z,1.1
2017-11-13T17:17:08.359Z,1.1
2017-11-13T17:18:10.785Z,1.2
2017-11-13T17:19:13.202Z,1.1
2017-11-13T17:20:15.640Z,1.1
2017-11-13T17:21:18.073Z,1.1
2017-11-13T17:22:20.526Z,1.1
2017-11-13T17:23:22.923Z,1.1
2017-11-13T17:24:25.349Z,1.2
2017-11-13T17:25:27.787Z,1.1
2017-11-13T17:26:30.586Z,1.1
2017-11-13T17:27:33.012Z,1.1
2017-11-13T17:28:35.437Z,1.1
2017-11-13T17:29:38.213Z,1.1
2017-11-13T17:30:40.642Z,1.1
2017-11-13T17:31:43.442Z,1.1
2017-11-13T17:32:45.857Z,1.1
2017-11-13T17:33:48.314Z,1.1
2017-11-13T17:34:50.743Z,1.1
2017-11-13T17:35:53.438Z,1.1
2017-11-13T17:36:55.869Z,1.2
2017-11-13T17:37:58.300Z,1.1
2017-11-13T17:39:01.116Z,1.1
2017-11-13T17:40:03.944Z,1.1
2017-11-13T17:41:06.364Z,1.1
2017-11-13T17:42:09.182Z,1.1
2017-11-13T17:43:11.618Z,1.1
2017-11-13T17:44:14.040Z,1.1
2017-11-13T17:45:16.485Z,1.1
2017-11-13T17:46:18.918Z,1.1
2017-11-13T17:47:21.335Z,1.1
2017-11-13T17:48:23.770Z,1.1
2017-11-13T17:49:26.182Z,1.1
2017-11-13T17:50:28.645Z,1.1
2017-11-13T17:51:31.076Z,1.1
2017-11-13T17:52:33.503Z,1.1
2017-11-13T17:53:35.957Z,1.1
2017-11-13T17:54:38.386Z,1.1
2017-11-13T17:55:40.820Z,1.1
2017-11-13T17:56:43.276Z,1.1
2017-11-13T17:57:46.076Z,1.1
2017-11-13T17:58:48.504Z,1.1
2017-11-13T17:59:50.941Z,1.1
2017-11-13T18:00:53.381Z,1.1
2017-11-13T18:01:55.808Z,1
2017-11-13T18:02:58.293Z,1.2
2017-11-13T18:04:01.085Z,1.1
2017-11-13T18:05:06.114Z,1
2017-11-13T18:06:11.433Z,1.1
2017-11-13T18:07:18.208Z,1.1
2017-11-13T18:08:23.045Z,1.1
2017-11-13T18:09:27.104Z,1.1
2017-11-13T18:10:31.858Z,1.1
2017-11-13T18:11:35.187Z,1.1
2017-11-13T18:12:40.973Z,1.1
2017-11-13T18:13:48.024Z,1
2017-11-13T18:14:50.916Z,1.1
2017-11-13T18:15:54.133Z,1.1
2017-11-13T18:16:57.375Z,1
2017-11-13T18:18:00.355Z,1.1
2017-11-13T18:19:03.367Z,1
2017-11-13T18:20:06.237Z,1
2017-11-13T18:21:09.013Z,1.1
2017-11-13T18:22:11.939Z,1
2017-11-13T18:23:15.194Z,1.1
2017-11-13T18:24:18.423Z,1
2017-11-13T18:25:21.530Z,1.1
2017-11-13T18:26:24.172Z,1
2017-11-13T18:27:27.110Z,1.1
2017-11-13T18:28:30.049Z,1
2017-11-13T18:29:32.804Z,1
2017-11-13T18:30:35.730Z,1.1
2017-11-13T18:31:38.529Z,1
2017-11-13T18:32:41.850Z,1.1
2017-11-13T18:33:47.315Z,1.1
2017-11-13T18:34:50.963Z,1.1
2017-11-13T18:35:54.628Z,1.1
2017-11-13T18:36:59.458Z,1.1
2017-11-13T18:38:04.687Z,1
2017-11-13T18:39:08.853Z,1
2017-11-13T18:40:13.531Z,1
2017-11-13T18:41:16.940Z,1.1
2017-11-13T18:42:21.385Z,1
2017-11-13T18:43:25.781Z,1
2017-11-13T18:44:28.841Z,1.1
2017-11-13T18:45:33.087Z,1
2017-11-13T18:46:37.022Z,1.1
2017-11-13T18:47:40.872Z,1
2017-11-13T18:48:45.366Z,1.1
2017-11-13T18:49:50.191Z,1
2017-11-13T18:50:55.519Z,1.1
2017-11-13T18:52:00.088Z,1
2017-11-13T18:53:04.703Z,1
2017-11-13T18:54:09.327Z,1
2017-11-13T18:55:13.307Z,1
2017-11-13T18:56:17.660Z,1
2017-11-13T18:57:21.598Z,1
2017-11-13T18:58:26.254Z,1.1
2017-11-13T18:59:30.457Z,1
2017-11-13T19:00:34.841Z,1.1
2017-11-13T19:01:38.699Z,1
2017-11-13T19:02:42.044Z,1
2017-11-13T19:03:46.576Z,1
2017-11-13T19:04:50.853Z,1
2017-11-13T19:05:55.852Z,1
2017-11-13T19:07:00.210Z,1
2017-11-13T19:08:04.470Z,1.1
2017-11-13T19:09:07.862Z,1
2017-11-13T19:10:11.241Z,1
2017-11-13T19:11:15.073Z,1
2017-11-13T19:12:19.335Z,1.1
2017-11-13T19:13:24.050Z,1
2017-11-13T19:14:28.452Z,1
2017-11-13T19:15:32.654Z,1
2017-11-13T19:16:37.384Z,1
2017-11-13T19:17:41.724Z,1
2017-11-13T19:18:45.968Z,1
2017-11-13T19:19:50.758Z,1
2017-11-13T19:20:56.434Z,1
2017-11-13T19:22:01.425Z,1
2017-11-13T19:23:05.617Z,1
2017-11-13T19:24:11.144Z,1
2017-11-13T19:25:15.286Z,1
2017-11-13T19:26:19.340Z,1
2017-11-13T19:27:24.776Z,1
2017-11-13T19:28:29.476Z,1
2017-11-13T19:29:34.121Z,1
2017-11-13T19:30:39.911Z,1
2017-11-13T19:31:44.628Z,1
2017-11-13T19:32:48.513Z,1
2017-11-13T19:33:53.192Z,1
2017-11-13T19:34:57.732Z,1
2017-11-13T19:36:02.242Z,1
2017-11-13T19:37:06.294Z,1
2017-11-13T19:38:10.650Z,1
2017-11-13T19:39:15.321Z,1
2017-11-13T19:40:19.744Z,1
2017-11-13T19:41:23.590Z,1
2017-11-13T19:42:28.866Z,1
2017-11-13T19:43:32.387Z,1
2017-11-13T19:44:36.452Z,1
2017-11-13T19:45:40.530Z,1
2017-11-13T19:46:44.908Z,1
2017-11-13T19:47:49.122Z,1
2017-11-13T19:48:53.783Z,1
2017-11-13T19:49:57.868Z,1
2017-11-13T19:51:01.897Z,1
2017-11-13T19:52:05.769Z,1
2017-11-13T19:53:10.100Z,1
2017-11-13T19:54:14.389Z,1
2017-11-13T19:55:18.842Z,1
2017-11-13T19:56:22.707Z,1
2017-11-13T19:57:26.535Z,1
2017-11-13T19:58:30.709Z,1
2017-11-13T19:59:35.433Z,1
2017-11-13T20:00:39.355Z,1
2017-11-13T20:01:44.093Z,1
2017-11-13T20:02:48.914Z,1
2017-11-13T20:03:53.016Z,1
2017-11-13T20:04:55.429Z,1
2017-11-13T20:05:57.861Z,1
2017-11-13T20:07:00.282Z,1
2017-11-13T20:08:02.697Z,1
2017-11-13T20:09:05.133Z,1
2017-11-13T20:10:07.562Z,1
2017-11-13T20:11:09.978Z,1
2017-11-13T20:12:12.405Z,1
2017-11-13T20:13:14.825Z,0.9
2017-11-13T20:14:17.252Z,0.9
2017-11-13T20:15:19.683Z,0.9
2017-11-13T20:16:22.102Z,1
2017-11-13T20:17:24.520Z,1
2017-11-13T20:18:26.945Z,1
2017-11-13T20:19:29.373Z,1
2017-11-13T20:20:31.794Z,1
2017-11-13T20:21:34.218Z,0.9
2017-11-13T20:22:36.645Z,1
2017-11-13T20:23:39.431Z,1
2017-11-13T20:24:42.212Z,1
2017-11-13T20:25:44.649Z,1
2017-11-13T20:26:47.061Z,0.9
2017-11-13T20:27:49.491Z,0.9
2017-11-13T20:28:52.290Z,1
2017-11-13T20:29:55.059Z,0.9
2017-11-13T20:30:57.499Z,1
2017-11-13T20:31:59.920Z,1
2017-11-13T20:33:02.344Z,1
2017-11-13T20:34:04.774Z,1
2017-11-13T20:35:07.197Z,1
2017-11-13T20:36:09.981Z,1
2017-11-13T20:37:12.417Z,1
2017-11-13T20:38:14.850Z,1
2017-11-13T20:39:17.282Z,0.9
2017-11-13T20:40:19.716Z,1
2017-11-13T20:41:22.149Z,0.9
2017-11-13T20:42:24.570Z,1
2017-11-13T20:43:27.225Z,0.9
2017-11-13T20:44:29.650Z,0.9
2017-11-13T20:45:32.067Z,1
2017-11-13T20:46:34.486Z,1
2017-11-13T20:47:36.917Z,0.9
2017-11-13T20:48:39.331Z,0.9
2017-11-13T20:49:41.762Z,0.9
2017-11-13T20:50:44.190Z,0.9
2017-11-13T20:51:46.971Z,0.9
2017-11-13T20:52:49.397Z,1
2017-11-13T20:53:51.835Z,0.9
2017-11-13T20:54:54.638Z,1
2017-11-13T20:55:57.403Z,1
2017-11-13T20:56:59.833Z,1
2017-11-13T20:58:02.255Z,0.9
2017-11-13T20:59:04.681Z,0.9
2017-11-13T21:00:07.115Z,0.9
2017-11-13T21:01:09.527Z,0.9
2017-11-13T21:02:11.953Z,0.9
2017-11-13T21:03:14.384Z,0.9
2017-11-13T21:04:16.803Z,0.9
2017-11-13T21:05:19.242Z,0.9
2017-11-13T21:06:21.658Z,0.9
2017-11-13T21:07:24.088Z,0.9
2017-11-13T21:08:26.879Z,0.9
2017-11-13T21:09:29.703Z,0.9
2017-11-13T21:10:32.115Z,0.9
2017-11-13T21:11:34.535Z,1.3
2017-11-13T21:12:36.956Z,1.2
2017-11-13T21:13:39.731Z,1.2
2017-11-13T21:14:42.152Z,1.1
2017-11-13T21:15:44.570Z,1
2017-11-13T21:16:46.991Z,1
2017-11-13T21:17:49.421Z,1
2017-11-13T21:18:51.847Z,0.9
2017-11-13T21:19:54.649Z,0.9
2017-11-13T21:20:57.433Z,1
2017-11-13T21:21:59.855Z,1
2017-11-13T21:23:02.285Z,1
2017-11-13T21:24:04.705Z,1
2017-11-13T21:25:07.135Z,1
2017-11-13T21:26:09.683Z,1
2017-11-13T21:27:12.107Z,1
2017-11-13T21:28:14.540Z,1
2017-11-13T21:29:16.954Z,0.9
2017-11-13T21:30:19.404Z,1
2017-11-13T21:31:21.828Z,0.9
2017-11-13T21:32:24.249Z,0.9
2017-11-13T21:33:27.028Z,1
2017-11-13T21:34:30.862Z,0.9
2017-11-13T21:35:33.279Z,1
2017-11-13T21:36:36.398Z,0.9
2017-11-13T21:37:38.821Z,0.9
2017-11-13T21:38:41.633Z,0.9
2017-11-13T21:39:44.064Z,0.9
2017-11-13T21:40:46.485Z,0.9
2017-11-13T21:41:48.906Z,0.9
2017-11-13T21:42:51.323Z,0.9
2017-11-13T21:43:53.739Z,0.9
2017-11-13T21:44:56.171Z,0.9
2017-11-13T21:45:58.639Z,0.9
2017-11-13T21:47:01.435Z,0.9
2017-11-13T21:48:03.861Z,1
2017-11-13T21:49:06.291Z,1
2017-11-13T21:50:08.714Z,0.9
2017-11-13T21:51:11.147Z,0.9
2017-11-13T21:52:13.566Z,0.9
2017-11-13T21:53:15.983Z,0.9
2017-11-13T21:54:18.406Z,0.9
2017-11-13T21:55:20.827Z,0.9
2017-11-13T21:56:23.247Z,0.9
2017-11-13T21:57:26.042Z,0.9
2017-11-13T21:58:28.452Z,0.9
2017-11-13T21:59:31.602Z,1
2017-11-13T22:00:34.021Z,0.9
2017-11-13T22:01:36.453Z,1
2017-11-13T22:02:38.912Z,1
2017-11-13T22:03:41.337Z,0.9
2017-11-13T22:04:44.370Z,1
2017-11-13T22:05:46.805Z,0.9
2017-11-13T22:06:49.228Z,0.9
2017-11-13T22:07:51.655Z,0.9
2017-11-13T22:08:54.076Z,0.9
2017-11-13T22:09:56.500Z,0.9
2017-11-13T22:10:59.996Z,1
2017-11-13T22:12:02.434Z,1.1
2017-11-13T22:13:05.214Z,1.1
2017-11-13T22:14:07.635Z,1.1
2017-11-13T22:15:10.059Z,1
2017-11-13T22:16:12.524Z,1
2017-11-13T22:17:14.943Z,1
2017-11-13T22:18:17.373Z,1
2017-11-13T22:19:19.793Z,1
2017-11-13T22:20:22.209Z,1
2017-11-13T22:21:24.632Z,1
2017-11-13T22:22:27.062Z,1
2017-11-13T22:23:29.479Z,1
2017-11-13T22:24:32.263Z,1
2017-11-13T22:25:34.691Z,1
2017-11-13T22:26:37.113Z,1
2017-11-13T22:27:39.535Z,1
2017-11-13T22:28:42.350Z,1
2017-11-13T22:29:44.769Z,1
2017-11-13T22:30:47.187Z,1
2017-11-13T22:31:49.619Z,1
2017-11-13T22:32:52.412Z,1
2017-11-13T22:33:54.841Z,0.9
2017-11-13T22:34:57.267Z,1
2017-11-13T22:35:59.674Z,1
2017-11-13T22:37:02.103Z,0.9
2017-11-13T22:38:04.527Z,1
2017-11-13T22:39:06.946Z,0.9
2017-11-13T22:40:09.366Z,0.9
2017-11-13T22:41:11.791Z,1
2017-11-13T22:42:14.209Z,1
2017-11-13T22:43:16.644Z,1
2017-11-13T22:44:19.070Z,1
2017-11-13T22:45:21.478Z,1
2017-11-13T22:46:23.907Z,1
2017-11-13T22:47:26.329Z,0.9
2017-11-13T22:48:28.748Z,1
2017-11-13T22:49:31.153Z,1
2017-11-13T22:50:33.586Z,1
2017-11-13T22:51:36.008Z,0.9
2017-11-13T22:52:38.786Z,1
2017-11-13T22:53:41.217Z,1
2017-11-13T22:54:43.647Z,0.9
2017-11-13T22:55:46.079Z,1
2017-11-13T22:56:48.509Z,1
2017-11-13T22:57:50.934Z,1
2017-11-13T22:58:53.360Z,1
2017-11-13T22:59:55.787Z,1
2017-11-13T23:00:58.203Z,1
2017-11-13T23:02:00.614Z,1
2017-11-13T23:03:03.035Z,1
2017-11-13T23:04:05.447Z,1
2017-11-13T23:05:07.867Z,1
2017-11-13T23:06:10.286Z,0.9
2017-11-13T23:07:12.701Z,1
2017-11-13T23:08:15.131Z,0.9
2017-11-13T23:09:17.551Z,1
2017-11-13T23:10:19.973Z,1
2017-11-13T23:11:22.394Z,0.9
2017-11-13T23:12:24.819Z,0.9
2017-11-13T23:13:27.245Z,1
2017-11-13T23:14:29.673Z,0.9
2017-11-13T23:15:32.101Z,1
2017-11-13T23:16:34.521Z,1
2017-11-13T23:17:37.308Z,0.9
2017-11-13T23:18:39.740Z,1
2017-11-13T23:19:42.162Z,1
2017-11-13T23:20:44.581Z,1
2017-11-13T23:21:47.377Z,1
2017-11-13T23:22:49.809Z,1
2017-11-13T23:23:52.210Z,1
2017-11-13T23:24:54.642Z,1
2017-11-13T23:25:57.049Z,1
2017-11-13T23:26:59.845Z,1
2017-11-13T23:28:02.271Z,1
2017-11-13T23:29:04.686Z,1
2017-11-13T23:30:07.104Z,1
2017-11-13T23:31:09.914Z,1
2017-11-13T23:32:12.325Z,1
2017-11-13T23:33:14.754Z,1
2017-11-13T23:34:17.529Z,1
2017-11-13T23:35:20.324Z,1
2017-11-13T23:36:22.817Z,1
2017-11-13T23:37:25.244Z,1
2017-11-13T23:38:27.665Z,1
2017-11-13T23:39:30.094Z,1
2017-11-13T23:40:32.511Z,1
2017-11-13T23:41:34.940Z,1
2017-11-13T23:42:37.734Z,1
2017-11-13T23:43:40.521Z,1
2017-11-13T23:44:42.932Z,1
2017-11-13T23:45:45.352Z,1
2017-11-13T23:46:47.769Z,1
2017-11-13T23:47:50.550Z,1
2017-11-13T23:48:52.971Z,1
2017-11-13T23:49:55.397Z,1
2017-11-13T23:50:57.814Z,1
2017-11-13T23:52:00.940Z,0.9
2017-11-13T23:53:03.368Z,0.9
2017-11-13T23:54:05.788Z,1
2017-11-13T23:55:08.211Z,1
2017-11-13T23:56:10.628Z,0.9
2017-11-13T23:57:13.046Z,1
2017-11-13T23:58:15.466Z,1
2017-11-13T23:59:17.898Z,0.9
